Hermann_schoening — A8TM4 — position and weather

sailwx.info

Track history (hours):
 
Tides and Currents Weather Stations Pressure Air Temp Water Temp Dewpoint Dewpoint Depression Visibility Wind Speed Wind Dir Waves Ship Positions

Hermann_schoening

Last reported at 2014-Oct-31 17:22 UTC. Time now 2014-Oct-31 18:04 UTC.
Position N 36°08' W 005°18'.

Length 190 m; draft 6.4 m.

Type: Cargo ship. MMSI: 636091839.

Date/timePositionNaut miles runAvg speedWind from/ knotsBaromVisibWave heightAir tempDewpointWater temp
2014-Oct-31 17:22N 36°08' W 005°18'0 0.0
2014-Oct-31 16:04N 36°08' W 005°18'1 1.4
2014-Oct-31 15:32N 36°07' W 005°18'5 4.8
2014-Oct-31 14:33N 36°06' W 005°23'2 1.7
2014-Oct-31 13:30N 36°08' W 005°22'0 0.0
2014-Oct-31 12:30N 36°08' W 005°22'0 0.0
2014-Oct-31 11:30N 36°08' W 005°22'0 0.0
2014-Oct-31 10:30N 36°08' W 005°22'0 0.0
2014-Oct-31 09:30N 36°08' W 005°22'3 3.4
2014-Oct-31 08:32N 36°05' W 005°21'4 4.3
2014-Oct-31 07:34N 36°07' W 005°17'1 0.9
2014-Oct-31 06:30N 36°08' W 005°18'0 0.0
2014-Oct-31 04:18N 36°08' W 005°18'0 0.0
2014-Oct-31 03:24N 36°08' W 005°18'0 0.0
2014-Oct-31 02:30N 36°08' W 005°18'0 0.0
2014-Oct-31 00:30N 36°08' W 005°18'0 0.0
2014-Oct-30 23:30N 36°08' W 005°18'0 0.0
2014-Oct-30 22:30N 36°08' W 005°18'0 0.0
2014-Oct-30 21:30N 36°08' W 005°18'0 0.0
2014-Oct-30 20:30N 36°08' W 005°18'0 0.0
2014-Oct-30 19:24N 36°08' W 005°18'0 0.0
2014-Oct-30 18:21N 36°08' W 005°18'0 0.0
2014-Oct-30 17:18N 36°08' W 005°18'0 0.0
2014-Oct-30 16:30N 36°08' W 005°18'0 0.1
2014-Oct-30 15:12N 36°08' W 005°18'0 0.1
2014-Oct-30 14:24N 36°08' W 005°18'0 0.0
2014-Oct-30 13:33N 36°08' W 005°18'0 0.0
2014-Oct-30 12:33N 36°08' W 005°18'0 0.0
2014-Oct-30 11:12N 36°08' W 005°18'0 0.0
2014-Oct-30 10:09N 36°08' W 005°18'0 0.0
2014-Oct-30 09:24N 36°08' W 005°18'0 0.0
2014-Oct-30 07:18N 36°08' W 005°18'0 0.0
2014-Oct-30 06:27N 36°08' W 005°18'0 0.1
2014-Oct-30 05:18N 36°08' W 005°18'0 0.1
2014-Oct-30 04:33N 36°08' W 005°18'0 0.0
2014-Oct-30 03:18N 36°08' W 005°18'0 0.0
2014-Oct-30 02:30N 36°08' W 005°18'0 0.0
2014-Oct-30 01:33N 36°08' W 005°18'0 0.0
2014-Oct-30 00:24N 36°08' W 005°18'0 0.0
2014-Oct-29 23:24N 36°08' W 005°18'0 0.0
2014-Oct-29 22:30N 36°08' W 005°18'0 0.0
2014-Oct-29 21:30N 36°08' W 005°18'0 0.0
2014-Oct-29 20:18N 36°08' W 005°18'0 0.0
2014-Oct-29 19:12N 36°08' W 005°18'0 0.0
2014-Oct-29 18:30N 36°08' W 005°18'0 0.0
2014-Oct-29 17:30N 36°08' W 005°18'0 0.0
2014-Oct-29 15:24N 36°08' W 005°18'0 0.0
2014-Oct-29 14:21N 36°08' W 005°18'0 0.0
2014-Oct-29 12:30N 36°08' W 005°18'0 0.0
2014-Oct-29 10:06N 36°08' W 005°18'0 0.0
2014-Oct-29 09:12N 36°08' W 005°18'0 0.0
2014-Oct-29 08:15N 36°08' W 005°18'0 0.0
2014-Oct-29 07:18N 36°08' W 005°18'0 0.0
2014-Oct-29 06:30N 36°08' W 005°18'0 0.1
2014-Oct-29 05:24N 36°08' W 005°18'0 0.1
2014-Oct-29 04:18N 36°08' W 005°18'0 0.0
2014-Oct-29 03:18N 36°08' W 005°18'0 0.0
2014-Oct-29 02:30N 36°08' W 005°18'0 0.0
2014-Oct-29 01:30N 36°08' W 005°18'0 0.0
2014-Oct-29 00:30N 36°08' W 005°18'0 0.0
2014-Oct-28 22:30N 36°08' W 005°18'0 0.0
2014-Oct-28 21:18N 36°08' W 005°18'0 0.0
2014-Oct-28 20:18N 36°08' W 005°18'0 0.0
2014-Oct-28 19:27N 36°08' W 005°18'0 0.0
2014-Oct-28 16:12N 36°08' W 005°18'0 0.0
2014-Oct-28 15:06N 36°08' W 005°18'0 0.0
2014-Oct-28 14:30N 36°08' W 005°18'0 0.0
2014-Oct-28 13:30N 36°08' W 005°18'0 0.0
2014-Oct-28 12:30N 36°08' W 005°18'0 0.0
2014-Oct-28 11:12N 36°08' W 005°18'0 0.0
2014-Oct-28 10:18N 36°08' W 005°18'0 0.0
2014-Oct-28 09:24N 36°08' W 005°18'0 0.0
2014-Oct-28 08:30N 36°08' W 005°18'0 0.0
2014-Oct-28 07:30N 36°08' W 005°18'0 0.0
2014-Oct-28 06:33N 36°08' W 005°18'0 0.0
2014-Oct-28 05:30N 36°08' W 005°18'0 0.0
2014-Oct-28 04:21N 36°08' W 005°18'0 0.1
2014-Oct-28 03:24N 36°08' W 005°18'0 0.0
2014-Oct-28 02:30N 36°08' W 005°18'0 0.0
2014-Oct-28 01:30N 36°08' W 005°18'0 0.0
2014-Oct-28 00:30N 36°08' W 005°18'0 0.0
2014-Oct-27 23:27N 36°08' W 005°18'0 0.0
2014-Oct-27 22:30N 36°08' W 005°18'0 0.0
2014-Oct-27 21:33N 36°08' W 005°18'0 0.0
2014-Oct-27 20:18N 36°08' W 005°18'0 0.1
2014-Oct-27 19:33N 36°08' W 005°18'0 0.0
2014-Oct-27 18:24N 36°08' W 005°18'0 0.0
2014-Oct-27 17:12N 36°08' W 005°18'0 0.1
2014-Oct-27 16:12N 36°08' W 005°18'0 0.2
2014-Oct-27 15:30N 36°08' W 005°18'0 0.1
2014-Oct-27 14:21N 36°08' W 005°18'0 0.1
2014-Oct-27 13:30N 36°08' W 005°18'0 0.1
2014-Oct-27 12:24N 36°08' W 005°18'0 0.0
2014-Oct-27 11:30N 36°08' W 005°18'0 0.1
2014-Oct-27 10:30N 36°08' W 005°18'0 0.0
2014-Oct-27 09:18N 36°08' W 005°18'0 0.0
2014-Oct-27 08:27N 36°08' W 005°18'0 0.0
2014-Oct-27 07:27N 36°08' W 005°18'0 0.0
2014-Oct-27 06:33N 36°08' W 005°18'0 0.0
2014-Oct-27 05:24N 36°08' W 005°18'0 0.1
2014-Oct-27 02:33N 36°08' W 005°18'0 0.1
2014-Oct-27 01:30N 36°08' W 005°18'0 0.1
2014-Oct-27 00:30N 36°08' W 005°18'0 0.1
2014-Oct-26 23:06N 36°08' W 005°18'0 0.1
2014-Oct-26 22:27N 36°08' W 005°18'0 0.0
2014-Oct-26 21:27N 36°08' W 005°18'0 0.0
2014-Oct-26 20:30N 36°08' W 005°18'0 0.0
2014-Oct-26 19:30N 36°08' W 005°18'0 0.0
2014-Oct-26 18:30N 36°08' W 005°18'0 0.0
2014-Oct-26 17:30N 36°08' W 005°18'0 0.1
2014-Oct-26 16:21N 36°08' W 005°18'0 0.2
2014-Oct-26 15:30N 36°08' W 005°18'0 0.1
2014-Oct-26 14:30N 36°08' W 005°18'0 0.1
2014-Oct-26 13:30N 36°08' W 005°18'0 0.0
2014-Oct-26 11:12N 36°08' W 005°18'0 0.1
2014-Oct-26 09:12N 36°08' W 005°18'0 0.0
2014-Oct-26 08:18N 36°08' W 005°18'0 0.0
2014-Oct-26 07:30N 36°08' W 005°18'0 0.0
2014-Oct-26 06:30N 36°08' W 005°18'0 0.0
2014-Oct-26 05:33N 36°08' W 005°18'0 0.1
2014-Oct-26 04:06N 36°08' W 005°18'0 0.2
2014-Oct-26 03:33N 36°08' W 005°18'0 0.0
2014-Oct-26 02:30N 36°08' W 005°18'0 0.1
2014-Oct-26 01:12N 36°08' W 005°18'0 0.0
2014-Oct-25 23:33N 36°08' W 005°18'0 0.0
2014-Oct-25 22:30N 36°08' W 005°18'0 0.0
2014-Oct-25 21:30N 36°08' W 005°18'0 0.0
2014-Oct-25 20:30N 36°08' W 005°18'0 0.0
2014-Oct-25 19:24N 36°08' W 005°18'0 0.0
2014-Oct-25 18:18N 36°08' W 005°18'0 0.0
2014-Oct-25 17:30N 36°08' W 005°18'0 0.1
2014-Oct-25 16:30N 36°08' W 005°18'0 0.1
2014-Oct-25 15:30N 36°08' W 005°18'0 0.1
2014-Oct-25 14:27N 36°08' W 005°18'0 0.0
2014-Oct-25 13:30N 36°08' W 005°18'0 0.1
2014-Oct-25 12:24N 36°08' W 005°18'0 0.0
2014-Oct-25 10:24N 36°08' W 005°18'0 0.0
2014-Oct-25 08:30N 36°08' W 005°18'0 0.0
2014-Oct-25 07:30N 36°08' W 005°18'0 0.0
2014-Oct-25 06:06N 36°08' W 005°18'0 0.0
2014-Oct-25 04:06N 36°08' W 005°18'0 0.1
2014-Oct-25 03:33N 36°08' W 005°18'0 0.0
2014-Oct-25 02:30N 36°08' W 005°18'0 0.0
2014-Oct-25 01:24N 36°08' W 005°18'0 0.0
2014-Oct-25 00:30N 36°08' W 005°18'0 0.1
2014-Oct-24 23:18N 36°08' W 005°18'0 0.1
2014-Oct-24 22:30N 36°08' W 005°18'0 0.0
2014-Oct-24 21:30N 36°08' W 005°18'0 0.0
2014-Oct-24 20:21N 36°08' W 005°18'0 0.0
2014-Oct-24 19:30N 36°08' W 005°18'0 0.0
2014-Oct-24 18:27N 36°08' W 005°18'0 0.0
2014-Oct-24 17:24N 36°08' W 005°18'0 0.0
2014-Oct-24 15:27N 36°08' W 005°18'0 0.0
2014-Oct-24 14:30N 36°08' W 005°18'0 0.0
2014-Oct-24 13:06N 36°08' W 005°18'0 0.1
2014-Oct-24 12:15N 36°08' W 005°18'0 0.0
2014-Oct-24 11:24N 36°08' W 005°18'0 0.1
2014-Oct-24 10:30N 36°08' W 005°18'0 0.0
2014-Oct-24 09:06N 36°08' W 005°18'0 0.0
2014-Oct-24 08:33N 36°08' W 005°18'0 0.0
2014-Oct-24 07:30N 36°08' W 005°18'0 0.0
2014-Oct-24 06:33N 36°08' W 005°18'0 0.0
2014-Oct-24 05:33N 36°08' W 005°18'0 0.0
2014-Oct-24 04:33N 36°08' W 005°18'0 0.0
2014-Oct-24 02:24N 36°08' W 005°18'0 0.1
2014-Oct-24 01:32N 36°08' W 005°18'0 0.0
2014-Oct-24 00:32N 36°08' W 005°18'0 0.0
2014-Oct-23 23:20N 36°08' W 005°18'0 0.1
2014-Oct-23 22:32N 36°08' W 005°18'0 0.0
2014-Oct-23 21:23N 36°08' W 005°18'0 0.0
2014-Oct-23 20:20N 36°08' W 005°18'0 0.0
2014-Oct-23 19:32N 36°08' W 005°18'0 0.0
2014-Oct-23 18:32N 36°08' W 005°18'0 0.0
2014-Oct-23 17:29N 36°08' W 005°18'0 0.0
2014-Oct-23 16:26N 36°08' W 005°18'0 0.0
2014-Oct-23 15:23N 36°08' W 005°18'0 0.0
2014-Oct-23 14:29N 36°08' W 005°18'0 0.1
2014-Oct-23 13:32N 36°08' W 005°18'0 0.0
2014-Oct-23 12:29N 36°08' W 005°18'0 0.0
2014-Oct-23 11:32N 36°08' W 005°18'0 0.0
2014-Oct-23 10:29N 36°08' W 005°18'0 0.0
2014-Oct-23 09:26N 36°08' W 005°18'0 0.0
2014-Oct-23 08:17N 36°08' W 005°18'0 0.0
2014-Oct-23 07:05N 36°08' W 005°18'0 0.0
2014-Oct-23 06:23N 36°08' W 005°18'0 0.0
2014-Oct-23 05:32N 36°08' W 005°18'0 0.0
2014-Oct-23 04:20N 36°08' W 005°18'0 0.0
2014-Oct-23 03:32N 36°08' W 005°18'0 0.0
2014-Oct-23 02:23N 36°08' W 005°18'0 0.0
2014-Oct-23 01:32N 36°08' W 005°18'0 0.0
2014-Oct-23 00:32N 36°08' W 005°18'0 0.0
2014-Oct-22 23:32N 36°08' W 005°18'0 0.0
2014-Oct-22 22:29N 36°08' W 005°18'0 0.0
2014-Oct-22 21:32N 36°08' W 005°18'0 0.0
2014-Oct-22 20:32N 36°08' W 005°18'0 0.0
2014-Oct-22 19:32N 36°08' W 005°18'0 0.1
2014-Oct-22 18:32N 36°08' W 005°18'0 0.0
2014-Oct-22 17:32N 36°08' W 005°18'0 0.1
2014-Oct-22 16:32N 36°08' W 005°18'0 0.0
2014-Oct-22 15:26N 36°08' W 005°18'0 0.0
2014-Oct-22 14:26N 36°08' W 005°18'0 0.0
2014-Oct-22 13:23N 36°08' W 005°18'0 0.1
2014-Oct-22 11:05N 36°08' W 005°18'0 0.2
2014-Oct-22 10:32N 36°08' W 005°18'0 0.0
2014-Oct-22 09:32N 36°08' W 005°18'0 0.1
2014-Oct-22 08:32N 36°08' W 005°18'0 0.0
2014-Oct-22 07:32N 36°08' W 005°18'0 0.0
2014-Oct-22 06:32N 36°08' W 005°18'0 0.0
2014-Oct-22 05:32N 36°08' W 005°18'0 0.0
2014-Oct-22 04:32N 36°08' W 005°18'0 0.0
2014-Oct-22 03:17N 36°08' W 005°18'0 0.0
2014-Oct-22 00:08N 36°08' W 005°18'0 0.2
2014-Oct-21 23:32N 36°08' W 005°18'0 0.0
2014-Oct-21 22:23N 36°08' W 005°18'0 0.1
2014-Oct-21 21:32N 36°08' W 005°18'0 0.1
2014-Oct-21 20:17N 36°08' W 005°18'0 0.0
2014-Oct-21 18:29N 36°08' W 005°18'  
Track history (hours):
 
Tides and Currents Weather Stations Pressure Air Temp Water Temp Dewpoint Dewpoint Depression Visibility Wind Speed Wind Dir Waves Ship Positions

Hermann_schoening

Last reported at 2014-Oct-31 17:22 UTC. Time now 2014-Oct-31 18:04 UTC.
Position N 36°08' W 005°18'.

Length 190 m; draft 6.4 m.

Type: Cargo ship. MMSI: 636091839.

Date/timePositionNaut miles runAvg speedWind from/ knotsBaromVisibWave heightAir tempDewpointWater temp
2014-Oct-31 17:22N 36°08' W 005°18'0 0.0
2014-Oct-31 16:04N 36°08' W 005°18'1 1.4
2014-Oct-31 15:32N 36°07' W 005°18'5 4.8
2014-Oct-31 14:33N 36°06' W 005°23'2 1.7
2014-Oct-31 13:30N 36°08' W 005°22'0 0.0
2014-Oct-31 12:30N 36°08' W 005°22'0 0.0
2014-Oct-31 11:30N 36°08' W 005°22'0 0.0
2014-Oct-31 10:30N 36°08' W 005°22'0 0.0
2014-Oct-31 09:30N 36°08' W 005°22'3 3.4
2014-Oct-31 08:32N 36°05' W 005°21'4 4.3
2014-Oct-31 07:34N 36°07' W 005°17'1 0.9
2014-Oct-31 06:30N 36°08' W 005°18'0 0.0
2014-Oct-31 04:18N 36°08' W 005°18'0 0.0
2014-Oct-31 03:24N 36°08' W 005°18'0 0.0
2014-Oct-31 02:30N 36°08' W 005°18'0 0.0
2014-Oct-31 00:30N 36°08' W 005°18'0 0.0
2014-Oct-30 23:30N 36°08' W 005°18'0 0.0
2014-Oct-30 22:30N 36°08' W 005°18'0 0.0
2014-Oct-30 21:30N 36°08' W 005°18'0 0.0
2014-Oct-30 20:30N 36°08' W 005°18'0 0.0
2014-Oct-30 19:24N 36°08' W 005°18'0 0.0
2014-Oct-30 18:21N 36°08' W 005°18'0 0.0
2014-Oct-30 17:18N 36°08' W 005°18'0 0.0
2014-Oct-30 16:30N 36°08' W 005°18'0 0.1
2014-Oct-30 15:12N 36°08' W 005°18'0 0.1
2014-Oct-30 14:24N 36°08' W 005°18'0 0.0
2014-Oct-30 13:33N 36°08' W 005°18'0 0.0
2014-Oct-30 12:33N 36°08' W 005°18'0 0.0
2014-Oct-30 11:12N 36°08' W 005°18'0 0.0
2014-Oct-30 10:09N 36°08' W 005°18'0 0.0
2014-Oct-30 09:24N 36°08' W 005°18'0 0.0
2014-Oct-30 07:18N 36°08' W 005°18'0 0.0
2014-Oct-30 06:27N 36°08' W 005°18'0 0.1
2014-Oct-30 05:18N 36°08' W 005°18'0 0.1
2014-Oct-30 04:33N 36°08' W 005°18'0 0.0
2014-Oct-30 03:18N 36°08' W 005°18'0 0.0
2014-Oct-30 02:30N 36°08' W 005°18'0 0.0
2014-Oct-30 01:33N 36°08' W 005°18'0 0.0
2014-Oct-30 00:24N 36°08' W 005°18'0 0.0
2014-Oct-29 23:24N 36°08' W 005°18'0 0.0
2014-Oct-29 22:30N 36°08' W 005°18'0 0.0
2014-Oct-29 21:30N 36°08' W 005°18'0 0.0
2014-Oct-29 20:18N 36°08' W 005°18'0 0.0
2014-Oct-29 19:12N 36°08' W 005°18'0 0.0
2014-Oct-29 18:30N 36°08' W 005°18'0 0.0
2014-Oct-29 17:30N 36°08' W 005°18'0 0.0
2014-Oct-29 15:24N 36°08' W 005°18'0 0.0
2014-Oct-29 14:21N 36°08' W 005°18'0 0.0
2014-Oct-29 12:30N 36°08' W 005°18'0 0.0
2014-Oct-29 10:06N 36°08' W 005°18'0 0.0
2014-Oct-29 09:12N 36°08' W 005°18'0 0.0
2014-Oct-29 08:15N 36°08' W 005°18'0 0.0
2014-Oct-29 07:18N 36°08' W 005°18'0 0.0
2014-Oct-29 06:30N 36°08' W 005°18'0 0.1
2014-Oct-29 05:24N 36°08' W 005°18'0 0.1
2014-Oct-29 04:18N 36°08' W 005°18'0 0.0
2014-Oct-29 03:18N 36°08' W 005°18'0 0.0
2014-Oct-29 02:30N 36°08' W 005°18'0 0.0
2014-Oct-29 01:30N 36°08' W 005°18'0 0.0
2014-Oct-29 00:30N 36°08' W 005°18'0 0.0
2014-Oct-28 22:30N 36°08' W 005°18'0 0.0
2014-Oct-28 21:18N 36°08' W 005°18'0 0.0
2014-Oct-28 20:18N 36°08' W 005°18'0 0.0
2014-Oct-28 19:27N 36°08' W 005°18'0 0.0
2014-Oct-28 16:12N 36°08' W 005°18'0 0.0
2014-Oct-28 15:06N 36°08' W 005°18'0 0.0
2014-Oct-28 14:30N 36°08' W 005°18'0 0.0
2014-Oct-28 13:30N 36°08' W 005°18'0 0.0
2014-Oct-28 12:30N 36°08' W 005°18'0 0.0
2014-Oct-28 11:12N 36°08' W 005°18'0 0.0
2014-Oct-28 10:18N 36°08' W 005°18'0 0.0
2014-Oct-28 09:24N 36°08' W 005°18'0 0.0
2014-Oct-28 08:30N 36°08' W 005°18'0 0.0
2014-Oct-28 07:30N 36°08' W 005°18'0 0.0
2014-Oct-28 06:33N 36°08' W 005°18'0 0.0
2014-Oct-28 05:30N 36°08' W 005°18'0 0.0
2014-Oct-28 04:21N 36°08' W 005°18'0 0.1
2014-Oct-28 03:24N 36°08' W 005°18'0 0.0
2014-Oct-28 02:30N 36°08' W 005°18'0 0.0
2014-Oct-28 01:30N 36°08' W 005°18'0 0.0
2014-Oct-28 00:30N 36°08' W 005°18'0 0.0
2014-Oct-27 23:27N 36°08' W 005°18'0 0.0
2014-Oct-27 22:30N 36°08' W 005°18'0 0.0
2014-Oct-27 21:33N 36°08' W 005°18'0 0.0
2014-Oct-27 20:18N 36°08' W 005°18'0 0.1
2014-Oct-27 19:33N 36°08' W 005°18'0 0.0
2014-Oct-27 18:24N 36°08' W 005°18'0 0.0
2014-Oct-27 17:12N 36°08' W 005°18'0 0.1
2014-Oct-27 16:12N 36°08' W 005°18'0 0.2
2014-Oct-27 15:30N 36°08' W 005°18'0 0.1
2014-Oct-27 14:21N 36°08' W 005°18'0 0.1
2014-Oct-27 13:30N 36°08' W 005°18'0 0.1
2014-Oct-27 12:24N 36°08' W 005°18'0 0.0
2014-Oct-27 11:30N 36°08' W 005°18'0 0.1
2014-Oct-27 10:30N 36°08' W 005°18'0 0.0
2014-Oct-27 09:18N 36°08' W 005°18'0 0.0
2014-Oct-27 08:27N 36°08' W 005°18'0 0.0
2014-Oct-27 07:27N 36°08' W 005°18'0 0.0
2014-Oct-27 06:33N 36°08' W 005°18'0 0.0
2014-Oct-27 05:24N 36°08' W 005°18'0 0.1
2014-Oct-27 02:33N 36°08' W 005°18'0 0.1
2014-Oct-27 01:30N 36°08' W 005°18'0 0.1
2014-Oct-27 00:30N 36°08' W 005°18'0 0.1
2014-Oct-26 23:06N 36°08' W 005°18'0 0.1
2014-Oct-26 22:27N 36°08' W 005°18'0 0.0
2014-Oct-26 21:27N 36°08' W 005°18'0 0.0
2014-Oct-26 20:30N 36°08' W 005°18'0 0.0
2014-Oct-26 19:30N 36°08' W 005°18'0 0.0
2014-Oct-26 18:30N 36°08' W 005°18'0 0.0
2014-Oct-26 17:30N 36°08' W 005°18'0 0.1
2014-Oct-26 16:21N 36°08' W 005°18'0 0.2
2014-Oct-26 15:30N 36°08' W 005°18'0 0.1
2014-Oct-26 14:30N 36°08' W 005°18'0 0.1
2014-Oct-26 13:30N 36°08' W 005°18'0 0.0
2014-Oct-26 11:12N 36°08' W 005°18'0 0.1
2014-Oct-26 09:12N 36°08' W 005°18'0 0.0
2014-Oct-26 08:18N 36°08' W 005°18'0 0.0
2014-Oct-26 07:30N 36°08' W 005°18'0 0.0
2014-Oct-26 06:30N 36°08' W 005°18'0 0.0
2014-Oct-26 05:33N 36°08' W 005°18'0 0.1
2014-Oct-26 04:06N 36°08' W 005°18'0 0.2
2014-Oct-26 03:33N 36°08' W 005°18'0 0.0
2014-Oct-26 02:30N 36°08' W 005°18'0 0.1
2014-Oct-26 01:12N 36°08' W 005°18'0 0.0
2014-Oct-25 23:33N 36°08' W 005°18'0 0.0
2014-Oct-25 22:30N 36°08' W 005°18'0 0.0
2014-Oct-25 21:30N 36°08' W 005°18'0 0.0
2014-Oct-25 20:30N 36°08' W 005°18'0 0.0
2014-Oct-25 19:24N 36°08' W 005°18'0 0.0
2014-Oct-25 18:18N 36°08' W 005°18'0 0.0
2014-Oct-25 17:30N 36°08' W 005°18'0 0.1
2014-Oct-25 16:30N 36°08' W 005°18'0 0.1
2014-Oct-25 15:30N 36°08' W 005°18'0 0.1
2014-Oct-25 14:27N 36°08' W 005°18'0 0.0
2014-Oct-25 13:30N 36°08' W 005°18'0 0.1
2014-Oct-25 12:24N 36°08' W 005°18'0 0.0
2014-Oct-25 10:24N 36°08' W 005°18'0 0.0
2014-Oct-25 08:30N 36°08' W 005°18'0 0.0
2014-Oct-25 07:30N 36°08' W 005°18'0 0.0
2014-Oct-25 06:06N 36°08' W 005°18'0 0.0
2014-Oct-25 04:06N 36°08' W 005°18'0 0.1
2014-Oct-25 03:33N 36°08' W 005°18'0 0.0
2014-Oct-25 02:30N 36°08' W 005°18'0 0.0
2014-Oct-25 01:24N 36°08' W 005°18'0 0.0
2014-Oct-25 00:30N 36°08' W 005°18'0 0.1
2014-Oct-24 23:18N 36°08' W 005°18'0 0.1
2014-Oct-24 22:30N 36°08' W 005°18'0 0.0
2014-Oct-24 21:30N 36°08' W 005°18'0 0.0
2014-Oct-24 20:21N 36°08' W 005°18'0 0.0
2014-Oct-24 19:30N 36°08' W 005°18'0 0.0
2014-Oct-24 18:27N 36°08' W 005°18'0 0.0
2014-Oct-24 17:24N 36°08' W 005°18'0 0.0
2014-Oct-24 15:27N 36°08' W 005°18'0 0.0
2014-Oct-24 14:30N 36°08' W 005°18'0 0.0
2014-Oct-24 13:06N 36°08' W 005°18'0 0.1
2014-Oct-24 12:15N 36°08' W 005°18'0 0.0
2014-Oct-24 11:24N 36°08' W 005°18'0 0.1
2014-Oct-24 10:30N 36°08' W 005°18'0 0.0
2014-Oct-24 09:06N 36°08' W 005°18'0 0.0
2014-Oct-24 08:33N 36°08' W 005°18'0 0.0
2014-Oct-24 07:30N 36°08' W 005°18'0 0.0
2014-Oct-24 06:33N 36°08' W 005°18'0 0.0
2014-Oct-24 05:33N 36°08' W 005°18'0 0.0
2014-Oct-24 04:33N 36°08' W 005°18'0 0.0
2014-Oct-24 02:24N 36°08' W 005°18'0 0.1
2014-Oct-24 01:32N 36°08' W 005°18'0 0.0
2014-Oct-24 00:32N 36°08' W 005°18'0 0.0
2014-Oct-23 23:20N 36°08' W 005°18'0 0.1
2014-Oct-23 22:32N 36°08' W 005°18'0 0.0
2014-Oct-23 21:23N 36°08' W 005°18'0 0.0
2014-Oct-23 20:20N 36°08' W 005°18'0 0.0
2014-Oct-23 19:32N 36°08' W 005°18'0 0.0
2014-Oct-23 18:32N 36°08' W 005°18'0 0.0
2014-Oct-23 17:29N 36°08' W 005°18'0 0.0
2014-Oct-23 16:26N 36°08' W 005°18'0 0.0
2014-Oct-23 15:23N 36°08' W 005°18'0 0.0
2014-Oct-23 14:29N 36°08' W 005°18'0 0.1
2014-Oct-23 13:32N 36°08' W 005°18'0 0.0
2014-Oct-23 12:29N 36°08' W 005°18'0 0.0
2014-Oct-23 11:32N 36°08' W 005°18'0 0.0
2014-Oct-23 10:29N 36°08' W 005°18'0 0.0
2014-Oct-23 09:26N 36°08' W 005°18'0 0.0
2014-Oct-23 08:17N 36°08' W 005°18'0 0.0
2014-Oct-23 07:05N 36°08' W 005°18'0 0.0
2014-Oct-23 06:23N 36°08' W 005°18'0 0.0
2014-Oct-23 05:32N 36°08' W 005°18'0 0.0
2014-Oct-23 04:20N 36°08' W 005°18'0 0.0
2014-Oct-23 03:32N 36°08' W 005°18'0 0.0
2014-Oct-23 02:23N 36°08' W 005°18'0 0.0
2014-Oct-23 01:32N 36°08' W 005°18'0 0.0
2014-Oct-23 00:32N 36°08' W 005°18'0 0.0
2014-Oct-22 23:32N 36°08' W 005°18'0 0.0
2014-Oct-22 22:29N 36°08' W 005°18'0 0.0
2014-Oct-22 21:32N 36°08' W 005°18'0 0.0
2014-Oct-22 20:32N 36°08' W 005°18'0 0.0
2014-Oct-22 19:32N 36°08' W 005°18'0 0.1
2014-Oct-22 18:32N 36°08' W 005°18'0 0.0
2014-Oct-22 17:32N 36°08' W 005°18'0 0.1
2014-Oct-22 16:32N 36°08' W 005°18'0 0.0
2014-Oct-22 15:26N 36°08' W 005°18'0 0.0
2014-Oct-22 14:26N 36°08' W 005°18'0 0.0
2014-Oct-22 13:23N 36°08' W 005°18'0 0.1
2014-Oct-22 11:05N 36°08' W 005°18'0 0.2
2014-Oct-22 10:32N 36°08' W 005°18'0 0.0
2014-Oct-22 09:32N 36°08' W 005°18'0 0.1
2014-Oct-22 08:32N 36°08' W 005°18'0 0.0
2014-Oct-22 07:32N 36°08' W 005°18'0 0.0
2014-Oct-22 06:32N 36°08' W 005°18'0 0.0
2014-Oct-22 05:32N 36°08' W 005°18'0 0.0
2014-Oct-22 04:32N 36°08' W 005°18'0 0.0
2014-Oct-22 03:17N 36°08' W 005°18'0 0.0
2014-Oct-22 00:08N 36°08' W 005°18'0 0.2
2014-Oct-21 23:32N 36°08' W 005°18'0 0.0
2014-Oct-21 22:23N 36°08' W 005°18'0 0.1
2014-Oct-21 21:32N 36°08' W 005°18'0 0.1
2014-Oct-21 20:17N 36°08' W 005°18'0 0.0
2014-Oct-21 18:29N 36°08' W 005°18'  

Dump ship's entire track history